Terminal Aerodrome Forecast
Issued by NWS Sioux Falls, SD

Home | Current Version | Previous Version | Text Only | Print | Product List | Glossary Off
Versions: 1 2 3 4 5 6 7 8 9 10 11 12 13 14 15 16 17

000
FTUS43 KFSD 312011 AAB
TAFFSD
TAF AMD
KFSD 312011Z 3120/0118 05012KT 5SM -SN BR OVC006
     FM312300 05015KT 2SM -SN OVC004
     FM010200 03015KT 3/4SM -SN BR OVC004
      TEMPO 0106/0109 1/2SM SN
     FM011400 36018G25KT 2SM -SN OVC005=

USA.gov is the U.S. government's official web portal to all federal, state and local government web resources and services.